createdAt,value
2023-03-05T00:00:28.014Z,2.25
2023-03-05T00:02:55.177Z,3.83
2023-03-05T00:05:22.276Z,3.25
2023-03-05T00:07:49.382Z,2.08
2023-03-05T00:10:16.665Z,2.53
2023-03-05T00:12:43.756Z,2.90
2023-03-05T00:15:10.944Z,1.98
2023-03-05T00:17:38.141Z,2.55
2023-03-05T00:20:05.438Z,2.08
2023-03-05T00:22:32.553Z,4.28
2023-03-05T00:24:59.763Z,2.40
2023-03-05T00:27:26.842Z,3.15
2023-03-05T00:29:53.931Z,1.63
2023-03-05T00:32:21.274Z,3.03
2023-03-05T00:34:49.953Z,5.85
2023-03-05T00:37:17.559Z,1.58
2023-03-05T00:39:44.734Z,2.78
2023-03-05T00:42:11.822Z,3.15
2023-03-05T00:44:38.903Z,3.00
2023-03-05T00:47:06.145Z,6.00
2023-03-05T00:49:33.221Z,2.08
2023-03-05T00:52:00.298Z,3.08
2023-03-05T00:54:27.482Z,2.97
2023-03-05T00:56:54.596Z,2.45
2023-03-05T00:59:21.706Z,5.10
2023-03-05T01:01:48.919Z,2.35
2023-03-05T01:04:16.136Z,4.68
2023-03-05T01:06:44.796Z,2.28
2023-03-05T01:09:12.040Z,2.75
2023-03-05T01:11:39.142Z,2.30
2023-03-05T01:14:06.238Z,2.83
2023-03-05T01:16:33.484Z,3.50
2023-03-05T01:19:00.635Z,4.63
2023-03-05T01:21:27.740Z,5.22
2023-03-05T01:23:54.992Z,2.63
2023-03-05T01:26:22.173Z,3.28
2023-03-05T01:28:49.299Z,2.90
2023-03-05T01:31:16.581Z,5.28
2023-03-05T01:33:43.757Z,2.40
2023-03-05T01:36:14.752Z,4.93
2023-03-05T01:38:42.820Z,3.03
2023-03-05T01:41:10.525Z,3.28
2023-03-05T01:43:38.032Z,2.97
2023-03-05T01:46:35.039Z,0.95
2023-03-05T01:49:20.264Z,2.75
2023-03-05T01:52:06.250Z,1.92
2023-03-05T01:54:35.945Z,4.93
2023-03-05T01:57:07.394Z,2.85
2023-03-05T01:59:34.877Z,4.18
2023-03-05T02:02:03.899Z,3.35
2023-03-05T02:04:37.115Z,7.75
2023-03-05T02:07:04.437Z,2.63
2023-03-05T02:09:31.613Z,3.10
2023-03-05T02:11:59.242Z,4.75
2023-03-05T02:14:26.568Z,3.00
2023-03-05T02:16:53.753Z,2.75
2023-03-05T02:19:20.975Z,2.30
2023-03-05T02:21:50.315Z,4.95
2023-03-05T02:24:19.236Z,5.53
2023-03-05T02:26:47.579Z,3.72
2023-03-05T02:29:17.912Z,2.45
2023-03-05T02:31:45.101Z,1.87
2023-03-05T02:34:12.289Z,2.33
2023-03-05T02:36:39.375Z,2.10
2023-03-05T02:39:06.693Z,2.55
2023-03-05T02:41:33.898Z,3.63
2023-03-05T02:44:01.019Z,3.17
2023-03-05T02:46:28.113Z,3.30
2023-03-05T02:48:55.296Z,4.47
2023-03-05T02:51:22.463Z,4.38
2023-03-05T02:53:49.616Z,2.53
2023-03-05T02:56:16.792Z,4.05
2023-03-05T02:58:43.967Z,3.08
2023-03-05T03:01:11.141Z,5.07
2023-03-05T03:03:38.791Z,4.20
2023-03-05T03:06:06.151Z,4.18
2023-03-05T03:08:33.299Z,3.50
2023-03-05T03:11:11.177Z,5.35
2023-03-05T03:13:38.322Z,3.83
2023-03-05T03:16:06.583Z,5.30
2023-03-05T03:18:33.845Z,2.65
2023-03-05T03:21:01.110Z,4.30
2023-03-05T03:23:28.612Z,6.57
2023-03-05T03:25:55.778Z,4.20
2023-03-05T03:28:22.905Z,4.28
2023-03-05T03:30:50.076Z,3.67
2023-03-05T03:33:18.253Z,4.50
2023-03-05T03:35:46.427Z,3.78
2023-03-05T03:38:13.895Z,3.33
2023-03-05T03:40:41.896Z,2.88
2023-03-05T03:43:09.355Z,3.65
2023-03-05T03:45:36.491Z,5.15
2023-03-05T03:48:03.776Z,3.95
2023-03-05T03:50:30.843Z,5.13
2023-03-05T03:52:57.919Z,2.75
2023-03-05T03:55:25.103Z,2.95
2023-03-05T03:57:52.242Z,4.97
2023-03-05T04:00:19.574Z,3.92
2023-03-05T04:02:46.765Z,3.70
2023-03-05T04:05:13.930Z,2.78
2023-03-05T04:07:41.003Z,4.60
2023-03-05T04:10:08.525Z,3.28
2023-03-05T04:12:35.651Z,5.35
2023-03-05T04:15:02.759Z,3.50
2023-03-05T04:17:29.912Z,3.38
2023-03-05T04:19:56.997Z,2.55
2023-03-05T04:22:24.085Z,5.50
2023-03-05T04:24:51.249Z,3.72
2023-03-05T04:27:18.370Z,4.00
2023-03-05T04:29:45.515Z,9.57
2023-03-05T04:32:12.799Z,3.28
2023-03-05T04:34:39.947Z,5.10
2023-03-05T04:37:07.106Z,3.30
2023-03-05T04:39:34.332Z,3.50
2023-03-05T04:42:01.615Z,5.43
2023-03-05T04:44:28.777Z,6.43
2023-03-05T04:46:55.927Z,3.50
2023-03-05T04:49:23.062Z,3.50
2023-03-05T04:51:50.288Z,3.53
2023-03-05T04:54:17.479Z,3.42
2023-03-05T04:56:44.548Z,2.60
2023-03-05T04:59:11.715Z,3.30
2023-03-05T05:01:38.969Z,2.42
2023-03-05T05:04:06.118Z,3.25
2023-03-05T05:06:33.203Z,2.35
2023-03-05T05:09:00.356Z,3.47
2023-03-05T05:11:27.475Z,4.13
2023-03-05T05:13:54.558Z,2.35
2023-03-05T05:16:21.760Z,4.13
2023-03-05T05:18:48.943Z,4.40
2023-03-05T05:21:18.580Z,3.83
2023-03-05T05:23:45.737Z,4.57
2023-03-05T05:26:16.623Z,9.27
2023-03-05T05:28:44.211Z,4.82
2023-03-05T05:31:12.637Z,4.07
2023-03-05T05:33:39.868Z,6.35
2023-03-05T05:36:07.843Z,6.07
2023-03-05T05:38:35.503Z,2.47
2023-03-05T05:41:03.804Z,3.20
2023-03-05T05:43:31.248Z,5.22
2023-03-05T05:46:02.403Z,2.70
2023-03-05T05:48:31.153Z,4.20
2023-03-05T05:50:58.319Z,2.15
2023-03-05T05:53:25.820Z,3.35
2023-03-05T05:55:53.329Z,5.60
2023-03-05T05:58:20.497Z,5.28
2023-03-05T06:00:47.672Z,4.65
2023-03-05T06:03:15.047Z,7.05
2023-03-05T06:05:43.352Z,3.15
2023-03-05T06:08:10.931Z,3.63
2023-03-05T06:10:38.119Z,5.13
2023-03-05T06:13:05.246Z,4.63
2023-03-05T06:15:32.597Z,4.35
2023-03-05T06:18:00.729Z,5.35
2023-03-05T06:20:28.476Z,5.57
2023-03-05T06:22:56.077Z,5.68
2023-03-05T06:25:23.203Z,4.50
2023-03-05T06:27:50.295Z,3.72
2023-03-05T06:30:17.569Z,4.35
2023-03-05T06:32:44.702Z,4.20
2023-03-05T06:35:11.904Z,2.33
2023-03-05T06:37:39.146Z,5.35
2023-03-05T06:40:07.713Z,2.95
2023-03-05T06:42:35.270Z,2.65
2023-03-05T06:45:02.477Z,6.38
2023-03-05T06:47:29.572Z,3.25
2023-03-05T06:49:57.036Z,6.07
2023-03-05T06:52:24.194Z,4.07
2023-03-05T06:54:51.504Z,2.80
2023-03-05T06:57:18.971Z,8.00
2023-03-05T06:59:46.106Z,4.18
2023-03-05T07:02:14.138Z,3.58
2023-03-05T07:04:41.297Z,3.55
2023-03-05T07:07:08.466Z,3.50
2023-03-05T07:09:35.554Z,6.85
2023-03-05T07:12:02.798Z,4.38
2023-03-05T07:14:30.103Z,6.10
2023-03-05T07:16:57.208Z,14.98
2023-03-05T07:19:24.282Z,7.10
2023-03-05T07:21:51.521Z,3.40
2023-03-05T07:24:18.655Z,5.32
2023-03-05T07:26:47.437Z,3.85
2023-03-05T07:29:15.799Z,5.13
2023-03-05T07:31:42.873Z,7.03
2023-03-05T07:34:10.586Z,4.60
2023-03-05T07:36:38.226Z,3.35
2023-03-05T07:39:06.453Z,2.95
2023-03-05T07:41:33.688Z,4.40
2023-03-05T07:44:00.938Z,6.10
2023-03-05T07:46:29.347Z,6.00
2023-03-05T07:48:56.589Z,2.97
2023-03-05T07:51:25.138Z,5.63
2023-03-05T07:53:53.018Z,3.78
2023-03-05T07:56:24.469Z,6.90
2023-03-05T08:01:18.848Z,4.43
2023-03-05T08:03:46.071Z,3.45
2023-03-05T08:06:13.395Z,4.53
2023-03-05T08:08:40.560Z,6.45
2023-03-05T08:11:09.380Z,4.18
2023-03-05T08:13:36.751Z,9.45
2023-03-05T08:16:07.598Z,3.40
2023-03-05T08:18:34.826Z,4.38
2023-03-05T08:21:02.274Z,2.78
2023-03-05T08:23:29.638Z,5.72
2023-03-05T08:25:56.792Z,3.72
2023-03-05T08:28:24.028Z,3.83
2023-03-05T08:30:51.238Z,2.45
2023-03-05T08:33:18.439Z,4.22
2023-03-05T08:35:46.020Z,3.83
2023-03-05T08:38:13.562Z,4.30
2023-03-05T08:40:40.704Z,4.10
2023-03-05T08:43:07.991Z,2.45
2023-03-05T08:45:35.063Z,4.93
2023-03-05T08:48:02.152Z,6.13
2023-03-05T08:50:29.333Z,3.40
2023-03-05T08:52:57.067Z,7.53
2023-03-05T08:55:24.224Z,2.80
2023-03-05T08:57:51.521Z,5.00
2023-03-05T09:00:18.909Z,3.88
2023-03-05T09:02:46.050Z,2.08
2023-03-05T09:05:13.278Z,3.90
2023-03-05T09:07:40.421Z,5.90
2023-03-05T09:10:07.877Z,5.47
2023-03-05T09:12:35.041Z,4.85
2023-03-05T09:15:02.177Z,3.75
2023-03-05T09:17:29.264Z,4.57
2023-03-05T09:19:56.435Z,2.65
2023-03-05T09:22:23.536Z,1.35
2023-03-05T09:24:50.607Z,3.25
2023-03-05T09:27:17.795Z,4.93
2023-03-05T09:29:44.906Z,2.88
2023-03-05T09:32:12.031Z,3.38
2023-03-05T09:34:39.201Z,3.20
2023-03-05T09:37:06.369Z,4.28
2023-03-05T09:39:33.436Z,3.35
2023-03-05T09:42:12.792Z,3.90
2023-03-05T09:44:45.681Z,4.88
2023-03-05T09:47:28.025Z,3.80
2023-03-05T09:50:03.848Z,3.63
2023-03-05T09:52:43.282Z,3.88
2023-03-05T09:55:25.947Z,4.72
2023-03-05T09:57:58.166Z,4.18
2023-03-05T10:00:28.140Z,6.07
2023-03-05T10:02:58.594Z,3.45
2023-03-05T10:05:28.679Z,3.45
2023-03-05T10:08:01.673Z,4.38
2023-03-05T10:10:36.600Z,3.15
2023-03-05T10:13:08.402Z,4.28
2023-03-05T10:15:42.178Z,5.60
2023-03-05T10:18:28.324Z,3.70
2023-03-05T10:21:00.147Z,3.00
2023-03-05T10:23:42.327Z,4.03
2023-03-05T10:26:09.419Z,5.20
2023-03-05T10:28:44.012Z,4.50
2023-03-05T10:31:29.765Z,6.05
2023-03-05T10:33:59.667Z,5.07
2023-03-05T10:36:32.769Z,7.53
2023-03-05T10:39:06.195Z,4.45
2023-03-05T10:41:54.991Z,6.07
2023-03-05T10:44:28.269Z,3.85
2023-03-05T10:46:57.850Z,6.22
2023-03-05T10:49:31.122Z,4.30
2023-03-05T10:52:24.458Z,5.07
2023-03-05T10:54:51.816Z,5.15
2023-03-05T10:57:21.172Z,5.22
2023-03-05T10:59:53.112Z,3.13
2023-03-05T11:02:21.131Z,6.97
2023-03-05T11:04:48.380Z,5.00
2023-03-05T11:07:15.570Z,3.45
2023-03-05T11:10:09.154Z,2.42
2023-03-05T11:12:37.539Z,4.57
2023-03-05T11:15:07.418Z,5.03
2023-03-05T11:17:37.853Z,2.72
2023-03-05T11:20:25.202Z,3.90
2023-03-05T11:23:07.721Z,4.70
2023-03-05T11:25:35.487Z,5.05
2023-03-05T11:28:03.679Z,1.95
2023-03-05T11:30:35.957Z,5.47
2023-03-05T11:33:12.121Z,4.70
2023-03-05T11:35:40.968Z,4.65
2023-03-05T11:38:15.664Z,4.10
2023-03-05T11:40:43.295Z,8.10
2023-03-05T11:43:15.202Z,5.68
2023-03-05T11:45:43.282Z,6.15
2023-03-05T11:48:14.424Z,7.28
2023-03-05T11:50:42.440Z,7.57
2023-03-05T11:53:12.593Z,5.47
2023-03-05T11:55:46.383Z,3.38
2023-03-05T11:58:35.265Z,2.53
2023-03-05T12:01:03.766Z,2.83
2023-03-05T12:03:34.942Z,4.88
2023-03-05T12:06:05.287Z,4.80
2023-03-05T12:08:34.246Z,4.03
2023-03-05T12:11:04.846Z,2.70
2023-03-05T12:13:36.077Z,3.63
2023-03-05T12:16:15.385Z,4.82
2023-03-05T12:18:51.815Z,5.00
2023-03-05T12:21:26.104Z,3.17
2023-03-05T12:23:59.199Z,3.63
2023-03-05T12:26:45.040Z,5.38
2023-03-05T12:29:27.986Z,3.15
2023-03-05T12:31:55.128Z,7.88
2023-03-05T12:34:46.139Z,6.13
2023-03-05T12:37:22.183Z,2.65
2023-03-05T12:40:00.972Z,4.93
2023-03-05T12:42:31.429Z,5.97
2023-03-05T12:45:11.766Z,5.00
2023-03-05T12:47:40.554Z,4.25
2023-03-05T12:50:26.224Z,3.25
2023-03-05T12:53:13.810Z,2.30
2023-03-05T12:55:46.873Z,3.97
2023-03-05T12:58:20.038Z,5.68
2023-03-05T13:00:53.873Z,4.53
2023-03-05T13:03:32.145Z,3.83
2023-03-05T13:06:00.927Z,3.78
2023-03-05T13:08:31.605Z,7.32
2023-03-05T13:11:01.060Z,5.55
2023-03-05T13:13:29.713Z,3.83
2023-03-05T13:15:56.979Z,4.97
2023-03-05T13:18:25.740Z,4.95
2023-03-05T13:21:02.492Z,7.05
2023-03-05T13:23:29.849Z,5.05
2023-03-05T13:26:00.031Z,7.45
2023-03-05T13:28:27.157Z,4.55
2023-03-05T13:30:58.829Z,3.40
2023-03-05T13:33:27.645Z,3.55
2023-03-05T13:35:54.960Z,4.80
2023-03-05T13:38:27.716Z,3.30
2023-03-05T13:41:05.742Z,11.23
2023-03-05T13:43:32.957Z,3.80
2023-03-05T13:46:00.251Z,3.15
2023-03-05T13:48:28.357Z,4.18
2023-03-05T13:50:57.660Z,5.22
2023-03-05T13:53:24.768Z,5.78
2023-03-05T13:55:53.304Z,5.70
2023-03-05T13:58:39.167Z,8.77
2023-03-05T14:01:13.205Z,3.53
2023-03-05T14:03:40.409Z,5.95
2023-03-05T14:06:11.402Z,3.85
2023-03-05T14:08:38.790Z,5.82
2023-03-05T14:11:13.512Z,4.82
2023-03-05T14:13:41.002Z,3.80
2023-03-05T14:16:08.153Z,3.65
2023-03-05T14:18:35.476Z,8.75
2023-03-05T14:21:10.458Z,4.10
2023-03-05T14:23:43.029Z,5.35
2023-03-05T14:26:29.578Z,4.82
2023-03-05T14:28:58.982Z,9.07
2023-03-05T14:31:26.893Z,6.93
2023-03-05T14:33:55.008Z,5.40
2023-03-05T14:36:24.829Z,2.70
2023-03-05T14:38:52.963Z,3.95
2023-03-05T14:41:31.597Z,3.55
2023-03-05T14:43:58.764Z,3.95
2023-03-05T14:46:26.011Z,4.70
2023-03-05T14:48:54.015Z,4.97
2023-03-05T14:51:21.854Z,3.42
2023-03-05T14:53:51.051Z,5.30
2023-03-05T14:56:23.028Z,7.45
2023-03-05T14:58:50.175Z,5.13
2023-03-05T15:01:17.374Z,5.18
2023-03-05T15:03:44.796Z,7.15
2023-03-05T15:06:20.617Z,8.65
2023-03-05T15:08:49.914Z,8.20
2023-03-05T15:11:17.067Z,8.15
2023-03-05T15:13:44.140Z,8.15
2023-03-05T15:16:15.869Z,6.63
2023-03-05T15:18:43.059Z,9.45
2023-03-05T15:21:10.261Z,9.38
2023-03-05T15:23:38.567Z,7.80
2023-03-05T15:26:07.469Z,7.68
2023-03-05T15:28:35.985Z,7.45
2023-03-05T15:31:03.846Z,8.50
2023-03-05T15:33:31.150Z,7.90
2023-03-05T15:35:58.594Z,7.38
2023-03-05T15:38:25.917Z,6.70
2023-03-05T15:40:53.147Z,7.65
2023-03-05T15:43:20.756Z,9.07
2023-03-05T15:45:48.254Z,8.38
2023-03-05T15:48:15.375Z,9.90
2023-03-05T15:50:43.657Z,9.75
2023-03-05T15:53:12.715Z,12.02
2023-03-05T15:55:40.361Z,10.85
2023-03-05T15:58:08.013Z,13.57
2023-03-05T16:00:37.119Z,11.25
2023-03-05T16:03:04.810Z,10.60
2023-03-05T16:05:32.256Z,9.30
2023-03-05T16:07:59.769Z,10.27
2023-03-05T16:10:28.096Z,8.35
2023-03-05T16:12:56.881Z,11.05
2023-03-05T16:15:24.706Z,8.38
2023-03-05T16:17:54.305Z,9.50
2023-03-05T16:20:21.490Z,8.35
2023-03-05T16:22:49.719Z,8.52
2023-03-05T16:25:16.991Z,10.13
2023-03-05T16:27:44.091Z,8.95
2023-03-05T16:30:11.626Z,6.95
2023-03-05T16:32:39.288Z,6.32
2023-03-05T16:35:06.837Z,7.47
2023-03-05T16:37:34.037Z,8.10
2023-03-05T16:40:01.146Z,9.18
2023-03-05T16:42:28.215Z,8.88
2023-03-05T16:44:55.399Z,9.38
2023-03-05T16:47:22.508Z,11.38
2023-03-05T16:49:49.643Z,11.15
2023-03-05T16:52:19.703Z,12.32
2023-03-05T16:54:48.084Z,8.90
2023-03-05T16:57:15.211Z,13.57
2023-03-05T16:59:43.711Z,9.52
2023-03-05T17:02:13.229Z,13.02
2023-03-05T17:04:40.483Z,11.80
2023-03-05T17:07:08.146Z,14.52
2023-03-05T17:09:35.346Z,12.80
2023-03-05T17:12:02.472Z,13.40
2023-03-05T17:14:29.993Z,13.60
2023-03-05T17:16:57.176Z,14.23
2023-03-05T17:19:24.357Z,15.18
2023-03-05T17:21:52.399Z,14.98
2023-03-05T17:24:22.382Z,11.93
2023-03-05T17:26:50.139Z,12.30
2023-03-05T17:29:19.127Z,13.60
2023-03-05T17:31:46.833Z,11.65
2023-03-05T17:34:14.232Z,13.50
2023-03-05T17:36:41.466Z,14.63
2023-03-05T17:39:08.892Z,13.02
2023-03-05T17:41:36.698Z,12.57
2023-03-05T17:44:04.106Z,16.05
2023-03-05T17:46:31.549Z,13.57
2023-03-05T17:48:58.670Z,13.10
2023-03-05T17:51:25.834Z,14.85
2023-03-05T17:53:52.927Z,12.48
2023-03-05T17:56:22.011Z,11.38
2023-03-05T17:58:50.006Z,12.98
2023-03-05T18:01:24.688Z,8.57
2023-03-05T18:03:52.034Z,8.32
2023-03-05T18:06:19.296Z,12.68
2023-03-05T18:08:46.595Z,18.15
2023-03-05T18:11:13.869Z,21.23
2023-03-05T18:13:41.142Z,35.65
2023-03-05T18:16:08.354Z,27.10
2023-03-05T18:18:35.611Z,26.13
2023-03-05T18:21:02.738Z,19.73
2023-03-05T18:23:29.850Z,17.67
2023-03-05T18:25:57.035Z,18.15
2023-03-05T18:28:25.837Z,15.02
2023-03-05T18:30:56.050Z,13.18
2023-03-05T18:33:24.513Z,15.18
2023-03-05T18:35:52.609Z,12.52
2023-03-05T18:38:21.036Z,15.40
2023-03-05T18:40:49.357Z,14.20
2023-03-05T18:43:17.201Z,18.45
2023-03-05T18:45:44.376Z,14.98
2023-03-05T18:48:11.728Z,12.20
2023-03-05T18:50:38.988Z,16.90
2023-03-05T18:53:06.074Z,10.60
2023-03-05T18:55:33.425Z,14.15
2023-03-05T18:58:00.848Z,10.45
2023-03-05T19:00:30.137Z,12.70
2023-03-05T19:02:57.692Z,16.77
2023-03-05T19:05:28.779Z,11.68
2023-03-05T19:07:56.619Z,9.68
2023-03-05T19:10:23.877Z,16.25
2023-03-05T19:12:57.878Z,10.77
2023-03-05T19:15:25.041Z,11.38
2023-03-05T19:17:52.332Z,9.43
2023-03-05T19:20:19.466Z,13.90
2023-03-05T19:22:46.728Z,12.18
2023-03-05T19:25:14.076Z,12.52
2023-03-05T19:27:41.255Z,11.55
2023-03-05T19:30:08.760Z,11.98
2023-03-05T19:32:35.922Z,11.85
2023-03-05T19:35:03.815Z,10.43
2023-03-05T19:37:32.086Z,11.48
2023-03-05T19:39:59.335Z,12.95
2023-03-05T19:42:26.511Z,11.55
2023-03-05T19:44:54.491Z,14.18
2023-03-05T19:47:21.619Z,9.75
2023-03-05T19:49:48.792Z,14.50
2023-03-05T19:52:15.958Z,16.20
2023-03-05T19:54:43.028Z,12.35
2023-03-05T19:57:10.178Z,15.20
2023-03-05T19:59:37.319Z,11.05
2023-03-05T20:02:04.407Z,12.18
2023-03-05T20:04:31.522Z,12.40
2023-03-05T20:06:58.704Z,14.93
2023-03-05T20:09:25.827Z,14.30
2023-03-05T20:11:52.992Z,16.45
2023-03-05T20:14:20.162Z,15.48
2023-03-05T20:16:47.293Z,14.45
2023-03-05T20:19:16.813Z,14.52
2023-03-05T20:21:44.464Z,18.15
2023-03-05T20:24:13.408Z,14.27
2023-03-05T20:26:41.487Z,14.30
2023-03-05T20:29:09.299Z,16.20
2023-03-05T20:31:37.246Z,15.73
2023-03-05T20:34:05.704Z,14.35
2023-03-05T20:36:34.594Z,14.73
2023-03-05T20:39:05.562Z,15.63
2023-03-05T20:41:33.904Z,14.43
2023-03-05T20:44:01.096Z,14.95
2023-03-05T20:46:29.463Z,14.98
2023-03-05T20:48:57.751Z,16.75
2023-03-05T20:51:26.606Z,16.35
2023-03-05T20:53:57.216Z,15.30
2023-03-05T20:56:28.030Z,16.13
2023-03-05T20:58:55.763Z,18.85
2023-03-05T21:01:22.847Z,17.58
2023-03-05T21:03:50.056Z,17.08
2023-03-05T21:06:17.283Z,14.50
2023-03-05T21:08:44.400Z,15.05
2023-03-05T21:11:12.023Z,14.27
2023-03-05T21:13:39.211Z,18.05
2023-03-05T21:16:10.450Z,14.10
2023-03-05T21:18:37.882Z,11.63
2023-03-05T21:21:05.201Z,12.02
2023-03-05T21:23:32.319Z,15.60
2023-03-05T21:25:59.522Z,18.77
2023-03-05T21:28:26.633Z,18.55
2023-03-05T21:30:54.481Z,14.93
2023-03-05T21:33:28.848Z,16.88
2023-03-05T21:35:58.038Z,17.88
2023-03-05T21:38:25.625Z,18.55
2023-03-05T21:40:53.923Z,14.50
2023-03-05T21:43:22.486Z,16.17
2023-03-05T21:45:50.946Z,13.70
2023-03-05T21:48:18.190Z,16.35
2023-03-05T21:50:45.981Z,13.20
2023-03-05T21:53:13.815Z,13.25
2023-03-05T21:56:03.323Z,17.02
2023-03-05T21:58:34.545Z,18.00
2023-03-05T22:01:01.818Z,13.35
2023-03-05T22:03:29.733Z,12.73
2023-03-05T22:05:57.012Z,14.98
2023-03-05T22:08:24.648Z,14.45
2023-03-05T22:10:51.871Z,15.43
2023-03-05T22:13:20.180Z,14.63
2023-03-05T22:15:52.273Z,12.80
2023-03-05T22:18:21.267Z,12.90
2023-03-05T22:20:48.981Z,11.13
2023-03-05T22:23:16.556Z,11.05
2023-03-05T22:25:44.026Z,13.30
2023-03-05T22:28:14.266Z,12.10
2023-03-05T22:30:45.311Z,12.13
2023-03-05T22:33:12.683Z,16.50
2023-03-05T22:35:40.743Z,12.38
2023-03-05T22:38:09.032Z,13.30
2023-03-05T22:40:37.614Z,11.57
2023-03-05T22:43:05.241Z,15.43
2023-03-05T22:45:32.376Z,16.17
2023-03-05T22:47:59.641Z,14.75
2023-03-05T22:50:26.787Z,17.20
2023-03-05T22:52:53.971Z,15.65
2023-03-05T22:55:21.122Z,17.98
2023-03-05T22:57:48.221Z,18.45
2023-03-05T23:00:17.383Z,15.13
2023-03-05T23:02:44.601Z,17.20
2023-03-05T23:05:12.006Z,14.48
2023-03-05T23:07:40.472Z,13.05
2023-03-05T23:10:09.946Z,12.63
2023-03-05T23:12:38.588Z,11.95
2023-03-05T23:15:07.940Z,12.27
2023-03-05T23:17:35.031Z,13.68
2023-03-05T23:20:04.509Z,9.90
2023-03-05T23:22:31.763Z,15.70
2023-03-05T23:24:58.868Z,10.68
2023-03-05T23:27:25.962Z,12.52
2023-03-05T23:30:08.192Z,13.07
2023-03-05T23:32:36.010Z,12.23
2023-03-05T23:35:03.222Z,11.27
2023-03-05T23:37:30.415Z,11.90
2023-03-05T23:39:57.517Z,12.80
2023-03-05T23:42:24.638Z,11.05
2023-03-05T23:44:51.823Z,13.68
2023-03-05T23:47:18.907Z,13.98
2023-03-05T23:49:46.018Z,13.38
2023-03-05T23:52:13.239Z,10.18
2023-03-05T23:54:40.372Z,12.50
2023-03-05T23:57:07.473Z,10.63
2023-03-05T23:59:35.527Z,12.18
